Accueil
METAR-TAF:

METAR-TAF

Aéroports :

Aéroport de Grenoble Alpes Isère

Grenoble, France

latitude: 45-22N, longitude: 005-20E, altitude: 384 m

Observation

Le bulletin a été fait il y a 32 minutes, à 03:00 UTC
Vent 2 kt de direction variable
Température 14°C
Humidité 94%
Pression 1021 hPa
Visibilité 10 km ou plus
pas de nuages en-dessous de 1500 mètres et pas de cumulonimbus.

METAR: LFLS 200300Z AUTO VRB02KT CAVOK 14/13 Q1021 NOSIG

Heure: 05:32 (03:32 UTC)

Prévision

Le bulletin a été fait il y a 1 heure et 32 minutes, à 02:00 UTC
Prévision valable du 20 à 03 UTC au 21 à 03 UTC
Vent 3 kt de direction variable
Visibilité 10 km ou plus
pas de nuages en-dessous de 1500 mètres et pas de cumulonimbus.
Evoluant progressivement
du 20 à 06 UTC au 20 à 08 UTC
Vent 5 kt de ouest

TAF: LFLS 200200Z 2003/2103 VRB03KT CAVOK BECMG 2006/2008 27005KT

Observations et prévisions météorologiques de plus de 4000 aéroports (messages METAR et TAF).

Les stations disponibles sont représentées par des disques jaunes et rouges sur la carte.

Passer la souris dessus pour voir le nom de la station.

Cliquer dessus pour voir les observations et prévisions météorologiques.

Pour changer de carte: cliquez sur les boutons verts avec une croix noire pour zoomer, sur le bouton vert avec un tiret pour effectuer un zoom arrière, ou sur les flèches vertes pour les cartes adjacentes.


METAR-TAF: